createdAt,value
2023-02-12T00:00:14.980Z,155.17255
2023-02-12T00:05:16.676Z,138.53775
2023-02-12T00:10:18.341Z,152.86785
2023-02-12T00:15:20.102Z,141.1942
2023-02-12T00:20:21.841Z,119.48795
2023-02-12T00:25:23.455Z,112.14795
2023-02-12T00:30:25.216Z,84.11525
2023-02-12T00:35:26.849Z,60.36105
2023-02-12T00:40:28.588Z,46.6033
2023-02-12T00:45:30.581Z,40.18555
2023-02-12T00:50:32.204Z,28.9911
2023-02-12T00:55:33.831Z,24.9522
2023-02-12T01:00:35.651Z,21.8907
2023-02-12T01:05:37.346Z,13.9422
2023-02-12T01:10:39.006Z,5.9937
2023-02-12T01:15:40.816Z,1.53075
2023-02-12T01:20:42.424Z,0.4148
2023-02-12T01:25:44.101Z,0.88715
2023-02-12T01:30:45.891Z,0
2023-02-12T01:35:47.567Z,0
2023-02-12T01:40:49.327Z,0
2023-02-12T01:45:51.054Z,0
2023-02-12T01:50:52.698Z,0
2023-02-12T01:55:54.922Z,0
2023-02-12T02:00:56.935Z,0
2023-02-12T02:05:58.870Z,0
2023-02-12T02:11:01.635Z,0
2023-02-12T02:16:03.498Z,0
2023-02-12T02:21:05.195Z,0
2023-02-12T02:26:06.843Z,0
2023-02-12T02:31:08.796Z,0
2023-02-12T02:36:10.556Z,0
2023-02-12T02:41:12.217Z,0
2023-02-12T02:46:14.080Z,0
2023-02-12T02:51:15.858Z,0
2023-02-12T02:56:17.629Z,0
2023-02-12T03:01:19.565Z,0
2023-02-12T03:06:21.231Z,0
2023-02-12T03:11:22.836Z,0
2023-02-12T03:16:24.631Z,0
2023-02-12T03:21:26.548Z,0
2023-02-12T03:26:28.267Z,0
2023-02-12T03:31:30.009Z,0
2023-02-12T03:36:31.723Z,0
2023-02-12T03:41:33.626Z,0
2023-02-12T03:46:35.612Z,0
2023-02-12T03:51:37.365Z,0
2023-02-12T03:56:38.997Z,0
2023-02-12T04:01:40.849Z,0
2023-02-12T04:06:42.703Z,0
2023-02-12T04:11:44.350Z,0
2023-02-12T04:16:46.182Z,0
2023-02-12T04:21:47.938Z,0
2023-02-12T04:26:49.682Z,0
2023-02-12T04:31:51.521Z,0
2023-02-12T04:36:53.394Z,0
2023-02-12T04:41:55.088Z,0
2023-02-12T04:46:56.822Z,0
2023-02-12T04:51:58.481Z,0
2023-02-12T04:57:00.116Z,0
2023-02-12T05:02:01.899Z,0
2023-02-12T05:07:03.516Z,0
2023-02-12T05:12:05.116Z,0
2023-02-12T05:17:06.880Z,0
2023-02-12T05:22:08.714Z,0
2023-02-12T05:27:10.438Z,0
2023-02-12T05:32:12.257Z,0
2023-02-12T05:37:13.984Z,0
2023-02-12T05:42:15.658Z,0
2023-02-12T05:47:17.477Z,0
2023-02-12T05:52:19.186Z,0
2023-02-12T05:57:20.816Z,0
2023-02-12T06:02:22.586Z,0
2023-02-12T06:07:24.229Z,0
2023-02-12T06:12:25.869Z,0
2023-02-12T06:17:27.616Z,0
2023-02-12T06:22:29.266Z,0
2023-02-12T06:27:30.897Z,0
2023-02-12T06:32:32.679Z,0
2023-02-12T06:37:34.245Z,0
2023-02-12T06:42:35.904Z,0
2023-02-12T06:47:37.698Z,0
2023-02-12T06:52:39.356Z,0
2023-02-12T06:57:40.983Z,0
2023-02-12T07:02:42.727Z,0
2023-02-12T07:07:44.443Z,0
2023-02-12T07:12:46.078Z,0
2023-02-12T07:17:47.793Z,0
2023-02-12T07:22:49.416Z,0
2023-02-12T07:27:51.133Z,0
2023-02-12T07:32:52.820Z,0
2023-02-12T07:37:54.490Z,0
2023-02-12T07:42:56.190Z,0
2023-02-12T07:47:58.006Z,0
2023-02-12T07:52:59.733Z,0
2023-02-12T07:58:01.314Z,0
2023-02-12T08:03:02.960Z,0
2023-02-12T08:08:04.670Z,0
2023-02-12T08:13:06.380Z,0
2023-02-12T08:18:08.162Z,0
2023-02-12T08:23:09.905Z,0
2023-02-12T08:28:11.573Z,0
2023-02-12T08:33:13.411Z,0
2023-02-12T08:38:15.043Z,0
2023-02-12T08:43:16.863Z,0
2023-02-12T08:48:18.915Z,0
2023-02-12T08:53:20.512Z,0
2023-02-12T08:58:22.204Z,0
2023-02-12T09:03:24.001Z,0
2023-02-12T09:08:25.602Z,0
2023-02-12T09:13:27.280Z,0
2023-02-12T09:18:29.035Z,0
2023-02-12T09:23:30.635Z,0
2023-02-12T09:28:32.402Z,0
2023-02-12T09:33:34.371Z,0
2023-02-12T09:38:36.004Z,0
2023-02-12T09:43:37.717Z,0
2023-02-12T09:48:39.560Z,0
2023-02-12T09:53:41.311Z,0
2023-02-12T09:58:42.970Z,0
2023-02-12T10:03:44.645Z,0
2023-02-12T10:08:46.283Z,0
2023-02-12T10:13:47.943Z,0
2023-02-12T10:18:49.853Z,0
2023-02-12T10:23:51.505Z,0
2023-02-12T10:28:53.137Z,0
2023-02-12T10:33:54.993Z,0
2023-02-12T10:38:56.692Z,0
2023-02-12T10:43:58.308Z,0
2023-02-12T10:49:00.101Z,0
2023-02-12T10:54:01.756Z,0
2023-02-12T10:59:03.397Z,0
2023-02-12T11:04:05.113Z,0
2023-02-12T11:09:06.810Z,0
2023-02-12T11:14:08.463Z,0
2023-02-12T11:19:10.215Z,0
2023-02-12T11:24:12.053Z,0
2023-02-12T11:29:13.903Z,0
2023-02-12T11:34:15.682Z,0
2023-02-12T11:39:17.332Z,0
2023-02-12T11:44:18.973Z,0
2023-02-12T11:49:20.693Z,0
2023-02-12T11:54:22.460Z,0
2023-02-12T11:59:24.205Z,0
2023-02-12T12:04:25.894Z,0
2023-02-12T12:09:27.521Z,0
2023-02-12T12:14:29.409Z,0
2023-02-12T12:19:31.154Z,0
2023-02-12T12:24:32.819Z,0
2023-02-12T12:29:34.562Z,0
2023-02-12T12:34:36.337Z,0
2023-02-12T12:39:38.181Z,0
2023-02-12T12:44:39.807Z,0
2023-02-12T12:49:41.500Z,0
2023-02-12T12:54:43.263Z,0
2023-02-12T12:59:44.966Z,0
2023-02-12T13:04:46.543Z,0
2023-02-12T13:09:48.204Z,0
2023-02-12T13:14:49.891Z,0
2023-02-12T13:19:51.530Z,0
2023-02-12T13:24:53.194Z,0
2023-02-12T13:29:54.900Z,0
2023-02-12T13:34:56.544Z,0
2023-02-12T13:39:58.214Z,0
2023-02-12T13:44:59.965Z,0
2023-02-12T13:50:01.629Z,0
2023-02-12T13:55:03.327Z,0
2023-02-12T14:00:05.173Z,0
2023-02-12T14:05:06.954Z,0
2023-02-12T14:10:08.569Z,0
2023-02-12T14:15:10.338Z,0
2023-02-12T14:20:12.119Z,0
2023-02-12T14:25:13.965Z,0
2023-02-12T14:30:15.644Z,0
2023-02-12T14:35:17.354Z,0
2023-02-12T14:40:19.255Z,0
2023-02-12T14:45:21.020Z,0
2023-02-12T14:50:22.793Z,0.4148
2023-02-12T14:55:24.501Z,3.48555
2023-02-12T15:00:26.390Z,6.9711
2023-02-12T15:05:28.172Z,14.73515
2023-02-12T15:10:29.847Z,19.567
2023-02-12T15:15:31.614Z,27.09145
2023-02-12T15:20:33.477Z,37.917
2023-02-12T15:25:35.086Z,45.33115
2023-02-12T15:30:36.831Z,60.25075
2023-02-12T15:35:38.554Z,64.89815
2023-02-12T15:40:40.208Z,76.5718
2023-02-12T15:45:42.019Z,94.184
2023-02-12T15:50:43.844Z,98.77625
2023-02-12T15:55:45.505Z,116.9608
2023-02-12T16:00:47.190Z,119.5241
2023-02-12T16:05:48.819Z,130.4048
2023-02-12T16:10:50.416Z,172.93305
2023-02-12T16:15:52.262Z,199.47115
2023-02-12T16:20:53.941Z,225.65935
2023-02-12T16:25:56.020Z,312.5052
2023-02-12T16:30:57.789Z,277.722
2023-02-12T16:35:59.403Z,326.98175
2023-02-12T16:41:01.040Z,284.26905
2023-02-12T16:46:02.884Z,290.87125
2023-02-12T16:51:04.650Z,275.69305
2023-02-12T16:56:06.281Z,264.24
2023-02-12T17:01:08.074Z,275.67405
2023-02-12T17:06:09.727Z,298.80075
2023-02-12T17:11:11.587Z,281.18855
2023-02-12T17:16:21.635Z,268.2789
2023-02-12T17:21:30.310Z,301.01415
2023-02-12T17:26:31.966Z,295.0756
2023-02-12T17:31:34.026Z,286.44445
2023-02-12T17:36:35.726Z,318.62635
2023-02-12T17:41:37.353Z,300.2022
2023-02-12T17:46:39.131Z,317.7041
2023-02-12T17:51:40.733Z,365.72785
2023-02-12T17:56:42.348Z,357.226
2023-02-12T18:01:44.038Z,341.5686
2023-02-12T18:06:45.763Z,370.98375
2023-02-12T18:11:47.442Z,378.80295
2023-02-12T18:16:49.194Z,428.72635
2023-02-12T18:21:50.922Z,463.656
2023-02-12T18:26:52.587Z,384.0037
2023-02-12T18:31:54.345Z,449.28975
2023-02-12T18:36:56.051Z,347.98635
2023-02-12T18:41:57.629Z,360.896
2023-02-12T18:46:59.531Z,375.52085
2023-02-12T18:52:03.229Z,390.44045
2023-02-12T18:57:04.801Z,385.6086
2023-02-12T19:02:06.673Z,393.74155
2023-02-12T19:07:08.560Z,440.419
2023-02-12T19:12:10.147Z,488.31345
2023-02-12T19:17:11.880Z,479.8116
2023-02-12T19:22:13.556Z,623.4588
2023-02-12T19:27:15.186Z,603.8918
2023-02-12T19:32:16.956Z,549.96565
2023-02-12T19:37:18.797Z,533.8842
2023-02-12T19:42:20.451Z,547.8264
2023-02-12T19:47:22.161Z,695.8814
2023-02-12T19:52:23.775Z,643.21025
2023-02-12T19:57:25.570Z,537.73865
2023-02-12T20:02:27.283Z,503.0486
2023-02-12T20:07:29.014Z,576.15385
2023-02-12T20:12:30.674Z,551.44125
2023-02-12T20:17:32.618Z,519.62825
2023-02-12T20:22:34.248Z,519.942
2023-02-12T20:27:35.924Z,457.1641
2023-02-12T20:32:37.597Z,442.66855
2023-02-12T20:37:39.204Z,528.499
2023-02-12T20:42:40.835Z,556.82645
2023-02-12T20:47:42.550Z,532.35345
2023-02-12T20:52:44.169Z,485.86045
2023-02-12T20:57:45.848Z,451.9082
2023-02-12T21:02:47.748Z,453.43895
2023-02-12T21:07:49.421Z,432.4515
2023-02-12T21:12:51.087Z,393.48295
2023-02-12T21:17:52.886Z,334.02515
2023-02-12T21:22:54.511Z,325.5233
2023-02-12T21:27:56.176Z,333.17705
2023-02-12T21:32:57.860Z,266.61885
2023-02-12T21:37:59.468Z,255.7933
2023-02-12T21:43:01.349Z,252.67665
2023-02-12T21:48:03.088Z,286.0204
2023-02-12T21:53:04.755Z,303.0241
2023-02-12T21:58:06.369Z,272.3178
2023-02-12T22:03:08.123Z,270.363
2023-02-12T22:08:09.762Z,279.0493
2023-02-12T22:13:11.424Z,255.3141
2023-02-12T22:18:13.204Z,227.9089
2023-02-12T22:23:15.012Z,237.7019
2023-02-12T22:28:16.673Z,244.673
2023-02-12T22:33:18.417Z,197.75595
2023-02-12T22:38:20.084Z,217.6367
2023-02-12T22:43:21.835Z,211.643
2023-02-12T22:48:23.613Z,213.2289
2023-02-12T22:53:25.362Z,170.35075
2023-02-12T22:58:27.036Z,169.37335
2023-02-12T23:03:28.831Z,172.80375
2023-02-12T23:08:30.489Z,150.04595
2023-02-12T23:13:32.216Z,140.75115
2023-02-12T23:18:34.161Z,153.6608
2023-02-12T23:23:35.867Z,151.76115
2023-02-12T23:28:37.792Z,138.243
2023-02-12T23:33:39.589Z,132.8578
2023-02-12T23:38:41.233Z,100.5656
2023-02-12T23:43:42.881Z,110.8378
2023-02-12T23:48:44.625Z,97.31965
2023-02-12T23:53:46.414Z,80.1315
2023-02-12T23:58:48.093Z,74.93075
